createdAt,value
2022-09-20T00:01:21.710Z,8.72
2022-09-20T00:08:00.856Z,8.54
2022-09-20T00:13:06.865Z,8.43
2022-09-20T00:18:15.241Z,8.47
2022-09-20T00:23:23.380Z,8.61
2022-09-20T00:28:30.912Z,8.61
2022-09-20T00:33:39.465Z,8.6
2022-09-20T00:38:46.664Z,8.61
2022-09-20T00:43:54.549Z,8.79
2022-09-20T00:49:01.753Z,9.17
2022-09-20T00:54:10.577Z,9.35
2022-09-20T00:59:18.327Z,9.08
2022-09-20T01:04:25.803Z,8.92
2022-09-20T01:09:33.154Z,8.92
2022-09-20T01:14:40.931Z,8.92
2022-09-20T01:19:48.102Z,8.84
2022-09-20T01:24:56.365Z,8.86
2022-09-20T01:30:03.149Z,8.81
2022-09-20T01:35:10.912Z,8.83
2022-09-20T01:40:18.272Z,9.04
2022-09-20T01:45:26.235Z,9.36
2022-09-20T01:50:34.085Z,9.54
2022-09-20T01:55:41.701Z,9.54
2022-09-20T02:00:49.930Z,9.49
2022-09-20T02:05:58.002Z,9.32
2022-09-20T02:11:05.742Z,9.12
2022-09-20T02:16:14.710Z,9.1
2022-09-20T02:21:22.144Z,9.08
2022-09-20T02:26:30.460Z,9.15
2022-09-20T02:31:40.223Z,9.2
2022-09-20T02:36:48.654Z,9.16
2022-09-20T02:41:56.917Z,9.14
2022-09-20T02:47:03.950Z,9.24
2022-09-20T02:52:13.499Z,9.27
2022-09-20T02:57:20.827Z,9.35
2022-09-20T03:02:28.103Z,9.3
2022-09-20T03:07:35.442Z,9.22
2022-09-20T03:12:44.152Z,9.19
2022-09-20T03:17:53.017Z,9.26
2022-09-20T03:23:01.172Z,9.3
2022-09-20T03:28:08.584Z,9.25
2022-09-20T03:33:16.488Z,8.99
2022-09-20T03:38:22.979Z,8.92
2022-09-20T03:43:30.832Z,8.84
2022-09-20T03:48:38.193Z,8.72
2022-09-20T03:53:45.860Z,8.73
2022-09-20T03:58:53.780Z,8.86
2022-09-20T04:04:01.658Z,8.89
2022-09-20T04:09:08.939Z,9.07
2022-09-20T04:14:17.253Z,9.15
2022-09-20T04:19:24.477Z,9.2
2022-09-20T04:24:31.851Z,9.18
2022-09-20T04:29:40.700Z,9.22
2022-09-20T04:34:49.745Z,9.26
2022-09-20T04:39:57.568Z,9.34
2022-09-20T04:45:06.276Z,9.36
2022-09-20T04:50:14.869Z,9.42
2022-09-20T04:55:21.861Z,9.52
2022-09-20T05:00:29.053Z,9.68
2022-09-20T05:05:36.261Z,9.86
2022-09-20T05:10:44.494Z,10.07
2022-09-20T05:15:52.501Z,10.35
2022-09-20T05:21:03.126Z,10.5
2022-09-20T05:26:11.348Z,10.58
2022-09-20T05:31:19.190Z,10.54
2022-09-20T05:36:27.175Z,10.52
2022-09-20T05:41:35.888Z,10.35
2022-09-20T05:46:44.355Z,10.25
2022-09-20T05:51:51.887Z,10.39
2022-09-20T05:57:00.993Z,10.79
2022-09-20T06:02:08.588Z,11.2
2022-09-20T06:07:18.537Z,11.54
2022-09-20T06:12:31.673Z,11.54
2022-09-20T06:17:39.975Z,11.53
2022-09-20T06:22:47.301Z,11.62
2022-09-20T06:27:55.345Z,11.86
2022-09-20T06:33:03.231Z,12.15
2022-09-20T06:38:11.691Z,12.14
2022-09-20T06:43:19.844Z,12.2
2022-09-20T06:48:28.217Z,12.15
2022-09-20T06:53:35.659Z,12.36
2022-09-20T06:58:44.052Z,13.52
2022-09-20T07:03:51.957Z,14.19
2022-09-20T07:08:58.829Z,13.36
2022-09-20T07:14:07.559Z,13.12
2022-09-20T07:19:14.839Z,13.54
2022-09-20T07:24:23.114Z,13.76
2022-09-20T07:29:30.557Z,13.92
2022-09-20T07:34:38.665Z,13.99
2022-09-20T07:39:46.684Z,14.07
2022-09-20T07:44:54.795Z,15.03
2022-09-20T07:50:02.001Z,15.83
2022-09-20T07:55:09.117Z,15.74
2022-09-20T08:00:16.984Z,17.46
2022-09-20T08:05:26.146Z,22.26
2022-09-20T08:10:33.266Z,23.43
2022-09-20T08:15:41.641Z,20.33
2022-09-20T08:20:49.149Z,18.44
2022-09-20T08:25:56.107Z,17.58
2022-09-20T08:31:10.036Z,16.5
2022-09-20T08:36:16.904Z,15.72
2022-09-20T08:41:25.246Z,15.84
2022-09-20T08:46:32.570Z,16.35
2022-09-20T08:51:40.909Z,16.98
2022-09-20T08:56:47.670Z,17.29
2022-09-20T09:01:56.815Z,20.02
2022-09-20T09:07:04.595Z,23.36
2022-09-20T09:12:11.429Z,23.3
2022-09-20T09:17:18.597Z,20.44
2022-09-20T09:22:26.188Z,19.43
2022-09-20T09:32:44.552Z,20.56
2022-09-20T09:37:52.421Z,22.5
2022-09-20T09:43:03.103Z,23.42
2022-09-20T09:48:10.614Z,21.14
2022-09-20T09:53:18.777Z,20.96
2022-09-20T09:58:27.015Z,20.7
2022-09-20T10:03:33.976Z,18.86
2022-09-20T10:08:42.375Z,18.7
2022-09-20T10:13:49.076Z,18.46
2022-09-20T10:18:56.248Z,17.38
2022-09-20T10:24:04.045Z,16.02
2022-09-20T10:29:11.297Z,15.54
2022-09-20T10:34:19.141Z,15.72
2022-09-20T10:39:26.418Z,15.22
2022-09-20T10:44:34.218Z,14.76
2022-09-20T10:49:41.415Z,15.48
2022-09-20T10:54:49.865Z,17.28
2022-09-20T10:59:57.062Z,17.53
2022-09-20T11:05:04.209Z,17.66
2022-09-20T11:10:11.807Z,17.85
2022-09-20T11:15:21.110Z,19.47
2022-09-20T11:20:27.180Z,19.31
2022-09-20T11:25:36.142Z,18.7
2022-09-20T11:30:43.449Z,18.39
2022-09-20T11:35:50.623Z,17.62
2022-09-20T11:40:58.330Z,16.33
2022-09-20T11:46:06.320Z,15.84
2022-09-20T11:51:15.321Z,15.22
2022-09-20T11:56:21.879Z,14.56
2022-09-20T12:01:29.328Z,14.42
2022-09-20T12:06:36.426Z,14.29
2022-09-20T12:11:44.391Z,14.33
2022-09-20T12:16:50.817Z,14.12
2022-09-20T12:21:59.162Z,14.18
2022-09-20T12:27:06.000Z,14.6
2022-09-20T12:32:14.253Z,14.64
2022-09-20T12:37:21.537Z,15.08
2022-09-20T12:42:28.736Z,15.8
2022-09-20T12:47:35.903Z,15.14
2022-09-20T12:52:44.246Z,14.69
2022-09-20T12:57:52.011Z,14.28
2022-09-20T13:02:58.863Z,14.28
2022-09-20T13:08:05.385Z,14.54
2022-09-20T13:13:12.759Z,15.02
2022-09-20T13:18:20.464Z,15.24
2022-09-20T13:23:27.667Z,14.94
2022-09-20T13:28:36.487Z,14.59
2022-09-20T13:33:44.450Z,14.26
2022-09-20T13:38:51.781Z,13.85
2022-09-20T13:44:00.152Z,13.4
2022-09-20T13:49:07.456Z,13.33
2022-09-20T13:54:16.049Z,13.28
2022-09-20T13:59:23.186Z,13.4
2022-09-20T14:04:31.028Z,14.47
2022-09-20T14:09:38.233Z,14.72
2022-09-20T14:14:46.517Z,15.0
2022-09-20T14:19:53.215Z,15.34
2022-09-20T14:25:00.417Z,15.46
2022-09-20T14:30:07.615Z,15.82
2022-09-20T14:35:56.446Z,16.26
2022-09-20T14:41:04.903Z,16.08
2022-09-20T14:46:11.459Z,15.32
2022-09-20T14:51:19.944Z,15.02
2022-09-20T14:56:41.853Z,14.99
2022-09-20T15:01:49.919Z,15.01
2022-09-20T15:06:57.548Z,15.24
2022-09-20T15:12:04.882Z,14.44
2022-09-20T15:17:13.055Z,14.53
2022-09-20T15:22:19.822Z,14.26
2022-09-20T15:27:28.823Z,14.26
2022-09-20T15:32:36.353Z,14.24
2022-09-20T15:37:44.238Z,14.72
2022-09-20T15:42:51.374Z,14.89
2022-09-20T15:47:58.332Z,14.4
2022-09-20T15:53:05.464Z,13.96
2022-09-20T15:58:12.677Z,13.0
2022-09-20T16:03:20.655Z,12.06
2022-09-20T16:08:27.784Z,11.52
2022-09-20T16:13:34.974Z,11.19
2022-09-20T16:18:42.551Z,10.96
2022-09-20T16:23:50.602Z,10.74
2022-09-20T16:28:58.932Z,10.59
2022-09-20T16:34:06.854Z,10.35
2022-09-20T16:39:15.285Z,10.19
2022-09-20T16:45:01.765Z,10.08
2022-09-20T16:50:08.951Z,9.81
2022-09-20T16:55:16.153Z,9.76
2022-09-20T17:00:24.913Z,9.68
2022-09-20T17:05:31.836Z,9.58
2022-09-20T17:30:32.818Z,9.29
2022-09-20T17:35:37.918Z,9.25
2022-09-20T17:40:46.345Z,8.96
2022-09-20T17:45:53.544Z,8.64
2022-09-20T17:51:00.833Z,8.33
2022-09-20T17:56:09.150Z,8.22
2022-09-20T18:01:17.065Z,8.27
2022-09-20T18:06:25.592Z,8.28
2022-09-20T18:11:32.799Z,8.44
2022-09-20T18:16:40.575Z,8.47
2022-09-20T18:21:52.207Z,8.53
2022-09-20T18:27:00.887Z,8.54
2022-09-20T18:32:08.521Z,8.53
2022-09-20T18:37:16.661Z,8.5
2022-09-20T18:42:23.617Z,8.52
2022-09-20T18:47:32.630Z,8.33
2022-09-20T18:52:40.225Z,8.18
2022-09-20T18:57:47.141Z,8.08
2022-09-20T19:02:54.825Z,8.08
2022-09-20T19:08:02.128Z,8.11
2022-09-20T19:13:10.655Z,8.0
2022-09-20T19:18:18.437Z,8.07
2022-09-20T19:23:25.694Z,8.01
2022-09-20T19:28:32.894Z,8.1
2022-09-20T19:33:40.249Z,8.01
2022-09-20T19:38:48.156Z,7.97
2022-09-20T19:43:56.264Z,8.01
2022-09-20T19:49:03.620Z,7.99
2022-09-20T19:54:11.644Z,7.92
2022-09-20T19:59:18.027Z,8.05
2022-09-20T20:04:26.931Z,8.3
2022-09-20T20:09:35.367Z,8.39
2022-09-20T20:14:43.216Z,8.42
2022-09-20T20:19:51.314Z,8.36
2022-09-20T20:24:59.104Z,8.34
2022-09-20T20:30:05.704Z,8.35
2022-09-20T20:35:13.671Z,8.36
2022-09-20T20:40:21.380Z,8.36
2022-09-20T20:45:29.622Z,8.43
2022-09-20T20:50:36.467Z,8.47
2022-09-20T20:55:44.307Z,8.5
2022-09-20T21:00:52.023Z,8.55
2022-09-20T21:06:00.192Z,8.54
2022-09-20T21:11:08.290Z,8.58
2022-09-20T21:16:15.602Z,8.55
2022-09-20T21:21:24.633Z,8.55
2022-09-20T21:26:32.996Z,8.48
2022-09-20T21:31:41.265Z,8.42
2022-09-20T21:36:49.341Z,8.34
2022-09-20T21:41:57.486Z,8.34
2022-09-20T21:47:05.734Z,8.42
2022-09-20T21:52:13.908Z,8.38
2022-09-20T21:57:21.746Z,8.38
2022-09-20T22:02:33.269Z,8.51
2022-09-20T22:07:40.469Z,8.64
2022-09-20T22:12:48.098Z,8.61
2022-09-20T22:17:56.027Z,8.58
2022-09-20T22:23:04.131Z,8.5
2022-09-20T22:28:10.493Z,8.49
2022-09-20T22:33:20.023Z,8.47
2022-09-20T22:38:27.454Z,8.46
2022-09-20T22:43:35.286Z,8.34
2022-09-20T22:48:43.185Z,8.44
2022-09-20T22:53:50.415Z,8.38
2022-09-20T22:58:58.426Z,8.34
2022-09-20T23:04:06.132Z,8.28
2022-09-20T23:09:14.680Z,8.23
2022-09-20T23:14:22.886Z,8.23
2022-09-20T23:19:29.549Z,8.19
2022-09-20T23:24:37.421Z,8.36
2022-09-20T23:29:43.945Z,8.34
2022-09-20T23:34:51.736Z,8.43
2022-09-20T23:39:59.662Z,8.46
2022-09-20T23:45:07.658Z,8.43
2022-09-20T23:50:16.449Z,8.48
2022-09-20T23:55:24.926Z,8.5
